createdAt,value
2018-01-08T00:01:14.989Z,101559.77
2018-01-08T00:03:43.939Z,101570.84
2018-01-08T00:06:13.177Z,101575.09
2018-01-08T00:08:42.096Z,101592.48
2018-01-08T00:11:10.966Z,101595.48
2018-01-08T00:13:39.916Z,101596.76
2018-01-08T00:16:08.895Z,101601.86
2018-01-08T00:18:37.720Z,101600.59
2018-01-08T00:21:08.315Z,101602.71
2018-01-08T00:23:37.193Z,101611.22
2018-01-08T00:26:06.003Z,101609.93
2018-01-08T00:28:36.528Z,101615.86
2018-01-08T00:31:05.429Z,101617.56
2018-01-08T00:33:34.246Z,101615.89
2018-01-08T00:36:04.055Z,101623.92
2018-01-08T00:38:33.019Z,101620.52
2018-01-08T00:41:01.835Z,101625.62
2018-01-08T00:43:30.675Z,101622.65
2018-01-08T00:45:59.605Z,101631.09
2018-01-08T00:48:28.447Z,101634.58
2018-01-08T00:50:57.328Z,101643.05
2018-01-08T00:53:26.162Z,101637.09
2018-01-08T00:55:55.050Z,101645.12
2018-01-08T00:58:23.904Z,101629.03
2018-01-08T01:00:52.753Z,101640.97
2018-01-08T01:03:21.687Z,101633.72
2018-01-08T01:05:52.252Z,101643.48
2018-01-08T01:08:21.153Z,101652.42
2018-01-08T01:10:50.009Z,101644.77
2018-01-08T01:13:18.888Z,101641.36
2018-01-08T01:15:47.692Z,101655.81
2018-01-08T01:18:16.543Z,101658.27
2018-01-08T01:20:46.334Z,101663.92
2018-01-08T01:23:15.367Z,101663.61
2018-01-08T01:25:44.186Z,101666.14
2018-01-08T01:28:13.101Z,101678.09
2018-01-08T01:30:41.938Z,101685.30
2018-01-08T01:33:10.836Z,101690.47
2018-01-08T01:35:39.815Z,101687.67
2018-01-08T01:38:08.677Z,101686.89
2018-01-08T01:40:37.494Z,101684.54
2018-01-08T01:43:06.376Z,101680.22
2018-01-08T01:45:35.294Z,101677.11
2018-01-08T01:48:04.197Z,101679.52
2018-01-08T01:50:37.615Z,101690.40
2018-01-08T01:53:06.431Z,101692.67
2018-01-08T01:55:35.315Z,101696.89
2018-01-08T01:58:05.110Z,101705.72
2018-01-08T02:00:33.940Z,101707.79
2018-01-08T02:03:02.836Z,101719.11
2018-01-08T02:05:32.740Z,101721.22
2018-01-08T02:08:01.686Z,101726.63
2018-01-08T02:10:30.547Z,101721.41
2018-01-08T02:12:59.445Z,101723.45
2018-01-08T02:15:28.390Z,101726.41
2018-01-08T02:17:57.195Z,101720.02
2018-01-08T02:20:26.079Z,101726.33
2018-01-08T02:22:55.238Z,101717.86
2018-01-08T02:25:24.099Z,101725.16
2018-01-08T02:27:53.842Z,101724.69
2018-01-08T02:30:22.652Z,101720.56
2018-01-08T02:32:51.488Z,101728.66
2018-01-08T02:35:20.368Z,101715.52
2018-01-08T02:37:49.192Z,101714.56
2018-01-08T02:40:18.067Z,101725.37
2018-01-08T02:42:49.456Z,101723.14
2018-01-08T02:45:18.262Z,101721.02
2018-01-08T02:47:47.106Z,101723.37
2018-01-08T02:50:17.974Z,101719.91
2018-01-08T02:52:47.143Z,101726.47
2018-01-08T02:55:16.145Z,101723.98
2018-01-08T02:57:45.346Z,101731.72
2018-01-08T03:00:14.262Z,101733.00
2018-01-08T03:02:45.844Z,101731.33
2018-01-08T03:05:17.076Z,101740.12
2018-01-08T03:07:46.037Z,101735.31
2018-01-08T03:10:14.920Z,101747.26
2018-01-08T03:12:43.801Z,101755.73
2018-01-08T03:15:12.611Z,101759.37
2018-01-08T03:17:41.430Z,101754.69
2018-01-08T03:20:12.036Z,101758.95
2018-01-08T03:22:40.862Z,101764.12
2018-01-08T03:25:09.683Z,101775.98
2018-01-08T03:27:38.563Z,101769.39
2018-01-08T03:30:07.455Z,101769.41
2018-01-08T03:32:36.324Z,101777.40
2018-01-08T03:35:05.225Z,101779.09
2018-01-08T03:37:34.034Z,101768.98
2018-01-08T03:40:02.910Z,101782.86
2018-01-08T03:42:33.396Z,101781.08
2018-01-08T03:45:02.220Z,101777.94
2018-01-08T03:47:31.009Z,101771.21
2018-01-08T03:49:59.958Z,101774.95
2018-01-08T03:52:28.858Z,101777.08
2018-01-08T03:54:57.678Z,101781.22
2018-01-08T03:57:26.553Z,101780.99
2018-01-08T03:59:55.432Z,101779.53
2018-01-08T04:02:24.307Z,101781.91
2018-01-08T04:04:53.180Z,101784.27
2018-01-08T04:07:21.996Z,101785.43
2018-01-08T04:09:50.866Z,101788.50
2018-01-08T04:12:20.537Z,101789.27
2018-01-08T04:14:49.392Z,101787.97
2018-01-08T04:17:18.272Z,101788.57
2018-01-08T04:19:48.055Z,101784.47
2018-01-08T04:22:16.858Z,101783.91
2018-01-08T04:24:46.715Z,101794.80
2018-01-08T04:27:16.435Z,101797.23
2018-01-08T04:29:45.245Z,101799.33
2018-01-08T04:32:14.060Z,101806.16
2018-01-08T04:34:42.934Z,101809.06
2018-01-08T04:37:11.778Z,101815.56
2018-01-08T04:39:40.622Z,101814.09
2018-01-08T04:42:09.485Z,101818.00
2018-01-08T04:44:38.329Z,101818.95
2018-01-08T04:47:07.182Z,101823.48
2018-01-08T04:49:38.508Z,101823.70
2018-01-08T04:52:07.365Z,101821.47
2018-01-08T04:54:36.270Z,101827.05
2018-01-08T04:57:05.176Z,101824.05
2018-01-08T04:59:34.037Z,101821.72
2018-01-08T05:02:02.942Z,101820.96
2018-01-08T05:04:31.848Z,101822.38
2018-01-08T05:07:00.708Z,101822.08
2018-01-08T05:09:29.682Z,101817.02
2018-01-08T05:11:59.700Z,101814.58
2018-01-08T05:14:28.723Z,101820.53
2018-01-08T05:16:57.723Z,101828.50
2018-01-08T05:19:28.118Z,101836.75
2018-01-08T05:21:59.052Z,101841.26
2018-01-08T05:24:30.586Z,101847.98
2018-01-08T05:27:03.172Z,101852.71
2018-01-08T05:29:32.211Z,101860.53
2018-01-08T05:32:01.172Z,101872.77
2018-01-08T05:34:30.368Z,101874.50
2018-01-08T05:37:00.136Z,101873.98
2018-01-08T05:39:28.972Z,101866.34
2018-01-08T05:41:57.836Z,101874.00
2018-01-08T05:44:27.495Z,101875.80
2018-01-08T05:46:56.340Z,101882.65
2018-01-08T05:49:25.355Z,101878.94
2018-01-08T05:51:56.806Z,101879.86
2018-01-08T05:54:25.901Z,101881.48
2018-01-08T05:56:54.899Z,101876.91
2018-01-08T05:59:24.606Z,101884.59
2018-01-08T06:01:57.699Z,101883.26
2018-01-08T06:04:30.069Z,101883.88
2018-01-08T06:06:59.165Z,101885.30
2018-01-08T06:09:28.985Z,101900.34
2018-01-08T06:11:58.939Z,101906.23
2018-01-08T06:14:28.130Z,101895.47
2018-01-08T06:16:57.084Z,101872.75
2018-01-08T06:19:28.520Z,101909.89
2018-01-08T06:21:57.529Z,101924.28
2018-01-08T06:24:27.239Z,101918.09
2018-01-08T06:27:03.131Z,101919.38
2018-01-08T06:29:32.848Z,101921.63
2018-01-08T06:32:03.028Z,101934.94
2018-01-08T06:34:32.838Z,101933.56
2018-01-08T06:37:01.813Z,101942.72
2018-01-08T06:39:31.753Z,101936.49
2018-01-08T06:42:01.154Z,101945.41
2018-01-08T06:44:30.150Z,101942.48
2018-01-08T06:46:59.044Z,101936.11
2018-01-08T06:49:28.131Z,101938.84
2018-01-08T06:51:57.989Z,101940.28
2018-01-08T06:54:26.941Z,101943.97
2018-01-08T06:56:57.876Z,101944.64
2018-01-08T06:59:26.976Z,101947.71
2018-01-08T07:01:56.005Z,101951.19
2018-01-08T07:04:26.926Z,101945.29
2018-01-08T07:06:56.007Z,101950.95
2018-01-08T07:09:26.741Z,101952.37
2018-01-08T07:11:56.718Z,101947.47
2018-01-08T07:14:26.376Z,101945.94
2018-01-08T07:16:55.321Z,101948.89
2018-01-08T07:19:25.992Z,101946.22
2018-01-08T07:21:54.990Z,101944.19
2018-01-08T07:24:25.006Z,101954.55
2018-01-08T07:26:53.942Z,101952.95
2018-01-08T07:29:23.809Z,101953.49
2018-01-08T07:31:52.810Z,101963.80
2018-01-08T07:34:21.795Z,101953.13
2018-01-08T07:36:51.778Z,101949.45
2018-01-08T07:39:21.706Z,101952.44
2018-01-08T07:41:50.829Z,101948.31
2018-01-08T07:44:19.804Z,101947.17
2018-01-08T07:46:48.921Z,101953.70
2018-01-08T07:49:18.835Z,101950.52
2018-01-08T07:51:47.680Z,101950.30
2018-01-08T07:54:16.508Z,101949.22
2018-01-08T07:56:46.310Z,101943.53
2018-01-08T07:59:15.203Z,101942.25
2018-01-08T08:01:44.080Z,101954.26
2018-01-08T08:04:14.602Z,101962.09
2018-01-08T08:06:43.473Z,101965.81
2018-01-08T08:09:12.319Z,101965.55
2018-01-08T08:11:41.215Z,101960.38
2018-01-08T08:14:10.088Z,101969.52
2018-01-08T08:16:38.944Z,101960.70
2018-01-08T08:19:08.883Z,101960.23
2018-01-08T08:21:37.749Z,101966.42
2018-01-08T08:24:06.742Z,101969.28
2018-01-08T08:26:35.661Z,101973.92
2018-01-08T08:29:04.489Z,101975.03
2018-01-08T08:31:33.412Z,101970.89
2018-01-08T08:34:02.333Z,101968.87
2018-01-08T08:36:31.183Z,101971.28
2018-01-08T08:39:00.025Z,101971.38
2018-01-08T08:41:31.798Z,101973.08
2018-01-08T08:44:00.671Z,101965.41
2018-01-08T08:46:29.485Z,101956.78
2018-01-08T08:48:59.261Z,101958.28
2018-01-08T08:51:28.146Z,101956.13
2018-01-08T08:53:56.977Z,101961.41
2018-01-08T08:56:29.462Z,101957.24
2018-01-08T08:58:58.408Z,101949.31
2018-01-08T09:01:27.241Z,101941.52
2018-01-08T09:03:56.254Z,101935.45
2018-01-08T09:06:25.201Z,101935.11
2018-01-08T09:08:54.324Z,101945.30
2018-01-08T09:11:25.150Z,101947.53
2018-01-08T09:13:54.278Z,101948.58
2018-01-08T09:16:23.860Z,101934.75
2018-01-08T09:18:53.821Z,101933.55
2018-01-08T09:21:24.026Z,101929.20
2018-01-08T09:23:53.088Z,101926.42
2018-01-08T09:26:22.296Z,101918.95
2018-01-08T09:28:51.385Z,101918.69
2018-01-08T09:31:20.378Z,101931.07
2018-01-08T09:33:49.416Z,101922.90
2018-01-08T09:36:19.466Z,101919.35
2018-01-08T09:38:48.691Z,101918.09
2018-01-08T09:41:17.734Z,101912.58
2018-01-08T09:43:46.985Z,101912.59
2018-01-08T09:46:16.187Z,101906.89
2018-01-08T09:48:49.656Z,101906.28
2018-01-08T09:51:18.674Z,101908.97
2018-01-08T09:53:48.013Z,101910.91
2018-01-08T09:56:17.002Z,101908.34
2018-01-08T09:58:46.782Z,101897.13
2018-01-08T10:01:16.947Z,101906.03
2018-01-08T10:03:57.859Z,101896.05
2018-01-08T10:06:44.390Z,101889.50
2018-01-08T10:09:32.124Z,101887.63
2018-01-08T10:12:18.722Z,101881.48
2018-01-08T10:15:06.325Z,101880.86
2018-01-08T10:17:53.063Z,101879.39
2018-01-08T10:20:28.814Z,101877.20
2018-01-08T10:22:58.742Z,101877.52
2018-01-08T10:25:29.776Z,101877.60
2018-01-08T10:27:59.831Z,101868.77
2018-01-08T10:30:28.780Z,101856.13
2018-01-08T10:32:57.818Z,101866.42
2018-01-08T10:35:26.768Z,101866.75
2018-01-08T10:37:55.656Z,101862.08
2018-01-08T10:40:25.429Z,101866.52
2018-01-08T10:43:00.101Z,101866.02
2018-01-08T10:45:40.971Z,101868.65
2018-01-08T10:48:16.350Z,101866.18
2018-01-08T10:50:51.788Z,101863.20
2018-01-08T10:53:30.404Z,101852.30
2018-01-08T10:55:59.288Z,101851.08
2018-01-08T10:58:28.196Z,101847.63
2018-01-08T11:01:02.825Z,101846.09
2018-01-08T11:03:37.553Z,101842.66
2018-01-08T11:06:07.511Z,101840.77
2018-01-08T11:08:37.468Z,101853.97
2018-01-08T11:11:06.580Z,101864.91
2018-01-08T11:13:35.733Z,101860.14
2018-01-08T11:16:04.686Z,101844.34
2018-01-08T11:18:33.808Z,101846.56
2018-01-08T11:21:02.929Z,101856.42
2018-01-08T11:23:31.900Z,101857.70
2018-01-08T11:26:00.836Z,101862.03
2018-01-08T11:28:32.506Z,101874.82
2018-01-08T11:31:01.600Z,101868.00
2018-01-08T11:33:30.593Z,101859.34
2018-01-08T11:35:59.767Z,101868.98
2018-01-08T11:38:28.886Z,101872.41
2018-01-08T11:40:58.396Z,101876.73
2018-01-08T11:43:27.588Z,101883.55
2018-01-08T11:45:56.751Z,101893.84
2018-01-08T11:48:25.984Z,101899.38
2018-01-08T11:50:55.187Z,101889.64
2018-01-08T11:53:24.487Z,101884.56
2018-01-08T11:55:54.564Z,101864.16
2018-01-08T11:58:24.901Z,101861.39
2018-01-08T12:00:54.083Z,101857.32
2018-01-08T12:03:23.200Z,101856.06
2018-01-08T12:05:52.317Z,101859.55
2018-01-08T12:08:21.461Z,101859.12
2018-01-08T12:10:50.661Z,101852.66
2018-01-08T12:13:21.601Z,101850.81
2018-01-08T12:15:50.857Z,101847.91
2018-01-08T12:18:20.055Z,101843.25
2018-01-08T12:20:50.894Z,101841.12
2018-01-08T12:23:20.030Z,101834.98
2018-01-08T12:25:49.082Z,101837.59
2018-01-08T12:28:19.855Z,101846.14
2018-01-08T12:30:49.099Z,101838.13
2018-01-08T12:33:18.162Z,101836.77
2018-01-08T12:35:49.658Z,101842.55
2018-01-08T12:38:20.148Z,101835.64
2018-01-08T12:40:49.189Z,101833.09
2018-01-08T12:43:18.229Z,101838.64
2018-01-08T12:45:47.120Z,101834.72
2018-01-08T12:48:16.878Z,101826.74
2018-01-08T12:50:49.368Z,101824.00
2018-01-08T12:53:19.327Z,101835.14
2018-01-08T12:55:48.379Z,101839.38
2018-01-08T12:58:21.899Z,101827.86
2018-01-08T13:00:52.929Z,101820.63
2018-01-08T13:03:22.018Z,101806.27
2018-01-08T13:05:51.014Z,101813.53
2018-01-08T13:08:19.997Z,101813.86
2018-01-08T13:10:48.848Z,101814.92
2018-01-08T13:13:17.886Z,101809.77
2018-01-08T13:15:46.712Z,101821.14
2018-01-08T13:18:15.599Z,101813.91
2018-01-08T13:20:44.499Z,101823.89
2018-01-08T13:23:13.408Z,101817.91
2018-01-08T13:25:42.397Z,101820.32
2018-01-08T13:28:11.313Z,101827.53
2018-01-08T13:30:40.213Z,101815.48
2018-01-08T13:33:09.106Z,101810.23
2018-01-08T13:35:38.067Z,101810.22
2018-01-08T13:38:07.047Z,101801.52
2018-01-08T13:40:36.034Z,101766.35
2018-01-08T13:43:06.696Z,101771.84
2018-01-08T13:45:35.777Z,101796.85
2018-01-08T13:48:04.747Z,101794.69
2018-01-08T13:50:33.735Z,101801.55
2018-01-08T13:53:02.681Z,101812.10
2018-01-08T13:55:31.645Z,101817.98
2018-01-08T13:58:01.520Z,101808.89
2018-01-08T14:00:30.532Z,101807.91
2018-01-08T14:03:00.535Z,101815.77
2018-01-08T14:05:32.503Z,101830.75
2018-01-08T14:08:01.907Z,101828.02
2018-01-08T14:10:31.819Z,101829.32
2018-01-08T14:13:01.836Z,101833.22
2018-01-08T14:15:31.141Z,101839.97
2018-01-08T14:18:00.335Z,101840.69
2018-01-08T14:20:32.094Z,101845.66
2018-01-08T14:23:01.908Z,101852.73
2018-01-08T14:25:30.913Z,101854.41
2018-01-08T14:28:01.740Z,101852.30
2018-01-08T14:30:35.546Z,101852.73
2018-01-08T14:33:06.244Z,101852.89
2018-01-08T14:35:36.394Z,101852.11
2018-01-08T14:38:05.392Z,101835.70
2018-01-08T14:40:36.232Z,101824.92
2018-01-08T14:43:06.456Z,101828.95
2018-01-08T14:45:35.522Z,101837.30
2018-01-08T14:48:05.464Z,101840.92
2018-01-08T14:50:35.483Z,101844.05
2018-01-08T14:53:04.483Z,101840.96
2018-01-08T14:55:33.673Z,101832.67
2018-01-08T14:58:02.774Z,101825.53
2018-01-08T15:00:33.608Z,101829.12
2018-01-08T15:03:03.666Z,101831.13
2018-01-08T15:05:32.721Z,101836.34
2018-01-08T15:08:02.738Z,101832.89
2018-01-08T15:10:33.312Z,101833.69
2018-01-08T15:13:04.213Z,101839.31
2018-01-08T15:15:34.371Z,101841.50
2018-01-08T15:18:04.551Z,101826.54
2018-01-08T15:20:33.646Z,101813.86
2018-01-08T15:23:02.845Z,101815.81
2018-01-08T15:25:32.901Z,101812.41
2018-01-08T15:28:04.337Z,101812.77
2018-01-08T15:30:34.380Z,101818.50
2018-01-08T15:33:06.956Z,101824.54
2018-01-08T15:35:36.990Z,101826.11
2018-01-08T15:38:06.206Z,101824.11
2018-01-08T15:40:40.626Z,101824.02
2018-01-08T15:43:09.546Z,101822.50
2018-01-08T15:45:39.665Z,101824.97
2018-01-08T15:48:08.761Z,101829.09
2018-01-08T15:50:38.572Z,101816.48
2018-01-08T15:53:07.818Z,101816.53
2018-01-08T15:55:38.610Z,101826.76
2018-01-08T15:58:08.831Z,101823.41
2018-01-08T16:00:37.824Z,101825.08
2018-01-08T16:03:09.174Z,101830.92
2018-01-08T16:05:39.034Z,101821.62
2018-01-08T16:08:08.770Z,101819.87
2018-01-08T16:10:39.538Z,101822.47
2018-01-08T16:13:11.500Z,101824.28
2018-01-08T16:15:41.970Z,101818.44
2018-01-08T16:18:10.920Z,101827.25
2018-01-08T16:20:40.735Z,101828.47
2018-01-08T16:23:13.310Z,101829.19
2018-01-08T16:25:43.019Z,101829.09
2018-01-08T16:28:12.015Z,101836.05
2018-01-08T16:30:42.184Z,101841.23
2018-01-08T16:33:11.231Z,101839.53
2018-01-08T16:35:40.076Z,101841.23
2018-01-08T16:38:11.680Z,101845.84
2018-01-08T16:40:41.387Z,101835.60
2018-01-08T16:43:10.423Z,101840.01
2018-01-08T16:45:40.294Z,101840.62
2018-01-08T16:48:09.438Z,101850.23
2018-01-08T16:50:39.256Z,101850.84
2018-01-08T16:53:09.212Z,101852.23
2018-01-08T16:55:38.155Z,101854.58
2018-01-08T16:58:07.988Z,101859.42
2018-01-08T17:00:37.227Z,101860.89
2018-01-08T17:03:06.441Z,101858.59
2018-01-08T17:05:35.466Z,101852.18
2018-01-08T17:08:05.721Z,101865.02
2018-01-08T17:10:34.637Z,101868.33
2018-01-08T17:13:03.730Z,101873.31
2018-01-08T17:15:32.902Z,101877.41
2018-01-08T17:18:01.935Z,101864.08
2018-01-08T17:20:31.122Z,101864.14
2018-01-08T17:23:00.530Z,101878.47
2018-01-08T17:25:29.529Z,101881.74
2018-01-08T17:27:59.550Z,101882.38
2018-01-08T17:30:29.650Z,101872.72
2018-01-08T17:32:58.661Z,101875.42
2018-01-08T17:35:29.730Z,101875.88
2018-01-08T17:37:59.660Z,101864.88
2018-01-08T17:40:30.524Z,101861.81
2018-01-08T17:43:01.521Z,101860.20
2018-01-08T17:45:32.547Z,101866.13
2018-01-08T17:48:04.425Z,101870.66
2018-01-08T17:50:33.323Z,101864.72
2018-01-08T17:53:02.164Z,101861.70
2018-01-08T17:55:32.741Z,101857.43
2018-01-08T17:58:01.660Z,101860.27
2018-01-08T18:00:30.601Z,101863.16
2018-01-08T18:02:59.560Z,101867.75
2018-01-08T18:05:28.612Z,101863.64
2018-01-08T18:07:57.580Z,101861.99
2018-01-08T18:10:27.498Z,101861.89
2018-01-08T18:12:56.430Z,101854.24
2018-01-08T18:15:25.324Z,101855.19
2018-01-08T18:17:54.267Z,101854.88
2018-01-08T18:20:23.147Z,101858.52
2018-01-08T18:22:52.081Z,101867.19
2018-01-08T18:25:23.804Z,101865.58
2018-01-08T18:27:52.714Z,101864.42
2018-01-08T18:30:21.667Z,101855.87
2018-01-08T18:32:50.637Z,101840.66
2018-01-08T18:35:19.685Z,101843.64
2018-01-08T18:37:56.466Z,101839.39
2018-01-08T18:40:26.634Z,101847.50
2018-01-08T18:42:56.478Z,101838.31
2018-01-08T18:45:25.817Z,101843.22
2018-01-08T18:47:55.044Z,101849.42
2018-01-08T18:50:24.582Z,101848.91
2018-01-08T18:52:58.514Z,101866.47
2018-01-08T18:55:29.451Z,101866.17
2018-01-08T18:58:00.277Z,101853.07
2018-01-08T19:00:30.305Z,101861.20
2018-01-08T19:03:00.265Z,101853.66
2018-01-08T19:05:29.420Z,101845.53
2018-01-08T19:07:59.236Z,101848.98
2018-01-08T19:10:28.436Z,101844.69
2018-01-08T19:12:57.634Z,101838.05
2018-01-08T19:15:26.971Z,101834.80
2018-01-08T19:17:56.390Z,101831.57
2018-01-08T19:20:27.248Z,101839.56
2018-01-08T19:22:56.795Z,101842.84
2018-01-08T19:25:25.941Z,101843.28
2018-01-08T19:27:57.288Z,101842.73
2018-01-08T19:30:26.970Z,101834.20
2018-01-08T19:32:56.781Z,101830.22
2018-01-08T19:35:27.188Z,101818.98
2018-01-08T19:37:56.148Z,101813.67
2018-01-08T19:40:25.445Z,101823.45
2018-01-08T19:42:55.758Z,101819.14
2018-01-08T19:45:25.106Z,101818.64
2018-01-08T19:47:54.047Z,101819.27
2018-01-08T19:50:23.206Z,101806.08
2018-01-08T19:52:52.576Z,101804.59
2018-01-08T19:55:21.774Z,101799.25
2018-01-08T19:57:53.189Z,101792.36
2018-01-08T20:00:22.357Z,101788.22
2018-01-08T20:02:51.836Z,101786.03
2018-01-08T20:05:21.106Z,101789.73
2018-01-08T20:07:50.391Z,101784.28
2018-01-08T20:10:19.443Z,101786.83
2018-01-08T20:12:49.648Z,101782.18
2018-01-08T20:15:18.814Z,101777.46
2018-01-08T20:17:47.909Z,101778.03
2018-01-08T20:20:17.148Z,101769.64
2018-01-08T20:22:46.299Z,101764.84
2018-01-08T20:25:15.422Z,101760.98
2018-01-08T20:27:53.348Z,101754.39
2018-01-08T20:30:22.452Z,101765.42
2018-01-08T20:32:51.640Z,101765.83
2018-01-08T20:35:21.785Z,101766.63
2018-01-08T20:37:51.188Z,101772.17
2018-01-08T20:40:20.412Z,101773.30
2018-01-08T20:42:49.641Z,101775.30
2018-01-08T20:45:18.779Z,101778.97
2018-01-08T20:47:47.955Z,101772.47
2018-01-08T20:50:17.217Z,101766.34
2018-01-08T20:52:51.539Z,101756.13
2018-01-08T20:55:25.949Z,101758.38
2018-01-08T20:57:55.683Z,101762.30
2018-01-08T21:00:25.359Z,101763.83
2018-01-08T21:02:58.113Z,101758.63
2018-01-08T21:05:27.449Z,101766.91
2018-01-08T21:07:56.768Z,101763.48
2018-01-08T21:10:29.211Z,101746.04
2018-01-08T21:12:58.365Z,101763.53
2018-01-08T21:15:27.522Z,101767.34
2018-01-08T21:17:58.392Z,101761.72
2018-01-08T21:20:27.612Z,101762.00
2018-01-08T21:22:56.592Z,101758.23
2018-01-08T21:25:25.785Z,101758.44
2018-01-08T21:27:55.386Z,101758.72
2018-01-08T21:30:24.578Z,101751.34
2018-01-08T21:32:55.069Z,101746.02
2018-01-08T21:35:24.902Z,101736.61
2018-01-08T21:37:54.316Z,101739.65
2018-01-08T21:40:26.527Z,101742.61
2018-01-08T21:42:56.614Z,101742.30
2018-01-08T21:45:26.401Z,101737.50
2018-01-08T21:47:56.280Z,101741.92
2018-01-08T21:52:51.140Z,101729.11
2018-01-08T21:55:20.322Z,101731.94
2018-01-08T21:57:49.441Z,101739.81
2018-01-08T22:00:18.662Z,101743.47
2018-01-08T22:02:50.224Z,101744.12
2018-01-08T22:05:19.767Z,101754.47
2018-01-08T22:07:49.012Z,101739.11
2018-01-08T22:10:19.133Z,101737.81
2018-01-08T22:12:48.297Z,101738.29
2018-01-08T22:15:17.383Z,101745.73
2018-01-08T22:17:46.713Z,101748.78
2018-01-08T22:20:15.771Z,101753.39
2018-01-08T22:22:44.940Z,101745.16
2018-01-08T22:25:14.269Z,101751.48
2018-01-08T22:27:43.287Z,101754.36
2018-01-08T22:30:12.373Z,101753.04
2018-01-08T22:32:45.106Z,101741.36
2018-01-08T22:35:14.154Z,101739.58
2018-01-08T22:37:43.230Z,101740.26
2018-01-08T22:40:13.154Z,101739.51
2018-01-08T22:42:42.264Z,101737.55
2018-01-08T22:45:11.376Z,101742.22
2018-01-08T22:47:40.768Z,101745.25
2018-01-08T22:50:10.128Z,101747.92
2018-01-08T22:52:39.163Z,101746.84
2018-01-08T22:55:08.268Z,101741.22
2018-01-08T22:57:37.347Z,101729.73
2018-01-08T23:00:06.578Z,101731.06
2018-01-08T23:02:37.404Z,101736.48
2018-01-08T23:05:06.345Z,101735.19
2018-01-08T23:07:35.487Z,101736.02
2018-01-08T23:10:04.818Z,101740.67
2018-01-08T23:12:33.828Z,101734.45
2018-01-08T23:15:02.997Z,101740.84
2018-01-08T23:17:31.923Z,101753.14
2018-01-08T23:20:00.936Z,101745.35
2018-01-08T23:22:29.863Z,101752.67
2018-01-08T23:25:00.515Z,101757.83
2018-01-08T23:27:29.694Z,101751.87
2018-01-08T23:29:58.601Z,101759.52
2018-01-08T23:32:27.558Z,101767.12
2018-01-08T23:34:56.502Z,101771.20
2018-01-08T23:37:25.581Z,101774.36
2018-01-08T23:39:54.579Z,101778.82
2018-01-08T23:42:23.485Z,101777.88
2018-01-08T23:44:52.412Z,101769.18
2018-01-08T23:47:22.426Z,101765.16
2018-01-08T23:49:51.481Z,101757.68
2018-01-08T23:52:20.472Z,101759.66
2018-01-08T23:54:50.457Z,101766.70
2018-01-08T23:57:19.846Z,101767.78
2018-01-08T23:59:48.799Z,101778.04
